Time;durP1;ratioP1;P1;durP2;ratioP2;P2;SDS_P1;SDS_P2;PMS_P1;PMS_P2;Temp;Humidity;BMP_temperature;BMP_pressure;BME280_temperature;BME280_humidity;BME280_pressure;Samples;Min_cycle;Max_cycle;Signal;HPM_P1;HPM_P2
2022/07/18 00:00:10;;;;;;;2.43;1.63;;;26.30;41.30;;;;;;4951313;28;20531;-47
2022/07/18 00:02:38;;;;;;;2.70;1.80;;;26.20;41.30;;;;;;4956837;28;20440;-48
2022/07/18 00:05:08;;;;;;;1.90;1.70;;;26.30;41.30;;;;;;4951437;28;20875;-47
2022/07/18 00:07:36;;;;;;;2.60;1.50;;;26.30;41.30;;;;;;4967259;28;20505;-47
2022/07/18 00:10:05;;;;;;;3.10;1.90;;;26.20;41.30;;;;;;4956776;28;20439;-47
2022/07/18 00:12:33;;;;;;;4.63;2.40;;;26.20;41.30;;;;;;4967622;28;20477;-47
2022/07/18 00:15:01;;;;;;;2.30;1.90;;;26.20;41.30;;;;;;4955715;28;20446;-47
2022/07/18 00:17:29;;;;;;;1.77;1.53;;;26.30;41.30;;;;;;4964886;28;20908;-48
2022/07/18 00:19:57;;;;;;;3.37;2.20;;;26.30;41.30;;;;;;4953593;28;20447;-48
2022/07/18 00:22:26;;;;;;;2.13;1.77;;;26.20;41.40;;;;;;4962460;28;20526;-47
2022/07/18 00:24:55;;;;;;;4.67;1.93;;;26.20;42.50;;;;;;4960529;28;20451;-47
2022/07/18 00:27:23;;;;;;;2.67;2.40;;;26.30;41.40;;;;;;4949799;28;20679;-47
2022/07/18 00:29:51;;;;;;;2.20;1.70;;;26.20;41.30;;;;;;4957859;28;20451;-47
2022/07/18 00:32:18;;;;;;;2.17;1.80;;;26.20;41.30;;;;;;4961841;28;20485;-47
2022/07/18 00:34:47;;;;;;;2.23;1.60;;;26.20;41.40;;;;;;4948657;28;20953;-48
2022/07/18 00:37:15;;;;;;;3.10;1.90;;;26.20;41.40;;;;;;4957326;28;20547;-46
2022/07/18 00:39:44;;;;;;;3.20;2.13;;;26.20;41.30;;;;;;4967425;28;21029;-47
2022/07/18 00:42:12;;;;;;;2.93;1.90;;;26.20;41.30;;;;;;4959482;28;20558;-46
2022/07/18 00:44:40;;;;;;;3.13;1.90;;;26.20;41.40;;;;;;4959014;28;20451;-47
2022/07/18 00:47:08;;;;;;;3.13;2.07;;;26.20;41.30;;;;;;4954176;28;20865;-48
2022/07/18 00:49:36;;;;;;;2.43;1.80;;;26.20;41.30;;;;;;4959557;28;20475;-47
2022/07/18 00:52:05;;;;;;;1.90;1.80;;;26.20;41.40;;;;;;4950027;28;20483;-47
2022/07/18 00:54:34;;;;;;;2.33;1.50;;;26.20;41.30;;;;;;4951229;28;20530;-46
2022/07/18 00:57:03;;;;;;;1.70;1.60;;;26.20;41.50;;;;;;4961442;28;20566;-47
2022/07/18 01:02:17;;;;;;;1.93;1.60;;;26.20;41.40;;;;;;4961483;28;20473;-47
2022/07/18 01:04:45;;;;;;;1.97;1.63;;;26.20;41.60;;;;;;4949528;28;20538;-48
2022/07/18 01:07:13;;;;;;;3.83;1.60;;;26.20;41.50;;;;;;4950329;28;20479;-47
2022/07/18 01:09:41;;;;;;;2.03;1.50;;;26.20;41.40;;;;;;4965150;28;20816;-48
2022/07/18 01:12:11;;;;;;;1.90;1.50;;;26.20;41.50;;;;;;4954547;28;20907;-48
2022/07/18 01:14:39;;;;;;;3.70;2.10;;;26.20;41.50;;;;;;4956176;28;20542;-47
2022/07/18 01:17:16;;;;;;;1.83;1.60;;;26.20;41.50;;;;;;4955792;28;21043;-46
2022/07/18 01:19:44;;;;;;;3.00;1.70;;;26.20;41.50;;;;;;4961882;28;20533;-47
2022/07/18 01:22:16;;;;;;;3.63;1.70;;;26.20;41.60;;;;;;4958771;28;20466;-47
2022/07/18 01:24:44;;;;;;;2.17;1.73;;;26.20;41.50;;;;;;4959563;28;20445;-47
2022/07/18 01:27:15;;;;;;;2.10;1.60;;;26.20;41.50;;;;;;4952711;28;20586;-47
2022/07/18 01:29:43;;;;;;;2.20;1.80;;;26.20;41.50;;;;;;4949977;28;21030;-47
2022/07/18 01:32:12;;;;;;;2.60;1.80;;;26.20;41.50;;;;;;4952769;28;20575;-47
2022/07/18 01:34:40;;;;;;;1.73;1.60;;;26.20;41.50;;;;;;4955448;28;21004;-47
2022/07/18 01:37:09;;;;;;;1.80;1.70;;;26.20;41.60;;;;;;4957156;28;20502;-47
2022/07/18 01:39:38;;;;;;;1.80;1.67;;;26.20;41.60;;;;;;4949693;28;20534;-46
2022/07/18 01:42:08;;;;;;;2.00;1.30;;;26.20;41.50;;;;;;4953974;28;20475;-46
2022/07/18 01:44:37;;;;;;;1.40;1.30;;;26.20;41.60;;;;;;4950782;28;20443;-47
2022/07/18 01:49:38;;;;;;;1.63;1.50;;;26.20;41.60;;;;;;5022326;28;20473;-72
2022/07/18 01:52:06;;;;;;;1.73;1.63;;;26.10;41.50;;;;;;5011306;28;20515;-72
2022/07/18 01:54:37;;;;;;;2.30;1.60;;;26.20;41.60;;;;;;5015906;28;21121;-72
2022/07/18 01:57:07;;;;;;;1.17;0.97;;;26.10;41.40;;;;;;5019766;28;20959;-71
2022/07/18 01:59:36;;;;;;;1.80;1.70;;;26.10;41.50;;;;;;5004945;28;20485;-72
2022/07/18 02:02:05;;;;;;;1.57;1.47;;;26.20;41.60;;;;;;5026704;28;20530;-71
2022/07/18 02:07:22;;;;;;;1.80;1.30;;;26.10;41.50;;;;;;5011414;28;20457;-72
2022/07/18 02:09:50;;;;;;;2.80;1.70;;;26.10;41.50;;;;;;5011870;28;20453;-72
2022/07/18 02:12:20;;;;;;;2.03;1.80;;;26.10;41.60;;;;;;5019316;28;20521;-71
2022/07/18 02:14:48;;;;;;;2.03;1.80;;;26.10;41.40;;;;;;5019944;28;20926;-71
2022/07/18 02:17:17;;;;;;;1.70;1.53;;;26.10;41.50;;;;;;5011154;28;20460;-71
2022/07/18 02:19:45;;;;;;;2.40;1.50;;;26.10;41.50;;;;;;5008535;28;20461;-71
2022/07/18 02:22:14;;;;;;;1.70;1.33;;;26.10;41.50;;;;;;5011118;28;20473;-71
2022/07/18 02:24:42;;;;;;;2.03;1.67;;;26.10;41.40;;;;;;5011347;28;20528;-72
2022/07/18 02:27:10;;;;;;;1.77;1.67;;;26.10;41.50;;;;;;5009485;28;20484;-72
2022/07/18 02:29:40;;;;;;;2.20;2.00;;;26.10;41.60;;;;;;5016395;28;20458;-71
2022/07/18 02:32:08;;;;;;;2.10;1.57;;;26.10;41.50;;;;;;5011418;28;20465;-72
2022/07/18 02:34:36;;;;;;;1.70;1.60;;;26.10;41.50;;;;;;5007865;28;20473;-71
2022/07/18 02:37:05;;;;;;;3.50;1.97;;;26.10;41.50;;;;;;5010786;28;20539;-71
2022/07/18 02:39:33;;;;;;;3.00;1.70;;;26.10;41.60;;;;;;5011375;28;21005;-71
2022/07/18 02:42:02;;;;;;;1.63;1.40;;;26.10;41.60;;;;;;5010893;28;20461;-71
2022/07/18 02:44:30;;;;;;;1.77;1.67;;;26.10;41.40;;;;;;5005266;28;20973;-71
2022/07/18 02:46:59;;;;;;;2.80;1.90;;;26.10;41.50;;;;;;5011007;28;20870;-71
2022/07/18 02:49:31;;;;;;;1.67;1.57;;;26.10;41.60;;;;;;5027935;28;20467;-71
2022/07/18 02:52:01;;;;;;;2.20;1.57;;;26.00;41.60;;;;;;5033317;28;20460;-71
2022/07/18 02:54:31;;;;;;;2.83;1.93;;;26.10;41.60;;;;;;5040358;28;20494;-71
2022/07/18 02:56:59;;;;;;;2.20;1.70;;;26.10;42.90;;;;;;5042622;28;20532;-73
2022/07/18 02:59:28;;;;;;;1.50;1.40;;;26.00;41.60;;;;;;5034023;28;20471;-71
2022/07/18 03:01:56;;;;;;;2.20;1.40;;;26.00;41.50;;;;;;5034372;28;20464;-71
2022/07/18 03:04:26;;;;;;;1.60;1.50;;;26.00;41.50;;;;;;5031490;28;20475;-71
2022/07/18 03:06:54;;;;;;;1.60;1.50;;;26.00;41.60;;;;;;5034292;28;20490;-71
2022/07/18 03:09:26;;;;;;;2.87;1.40;;;26.00;41.60;;;;;;5034251;28;20977;-71
2022/07/18 03:11:55;;;;;;;1.43;1.23;;;26.00;41.70;;;;;;5032827;28;20475;-72
2022/07/18 03:14:23;;;;;;;1.73;1.40;;;26.00;41.60;;;;;;5031609;28;20479;-72
2022/07/18 03:16:52;;;;;;;1.30;1.20;;;26.00;41.60;;;;;;5034258;28;20981;-72
2022/07/18 03:19:20;;;;;;;1.47;1.33;;;26.00;41.70;;;;;;5032352;28;20790;-71
2022/07/18 03:21:50;;;;;;;1.53;1.43;;;26.00;41.60;;;;;;5034108;28;20554;-72
2022/07/18 03:24:18;;;;;;;1.53;1.43;;;26.00;41.70;;;;;;5034447;28;20424;-72
2022/07/18 03:26:46;;;;;;;2.57;1.60;;;26.00;41.60;;;;;;5033676;28;20881;-71
2022/07/18 03:29:14;;;;;;;1.60;1.50;;;26.00;41.70;;;;;;5012644;28;20548;-71
2022/07/18 03:31:42;;;;;;;1.80;1.70;;;26.00;41.60;;;;;;5033054;28;20544;-72
2022/07/18 03:34:10;;;;;;;1.77;1.50;;;26.00;41.60;;;;;;5032319;28;21023;-72
2022/07/18 03:36:39;;;;;;;1.80;1.70;;;26.00;41.70;;;;;;5032499;28;20466;-71
2022/07/18 03:39:09;;;;;;;1.80;1.37;;;26.00;41.60;;;;;;5034051;28;20460;-71
2022/07/18 03:41:38;;;;;;;1.37;1.27;;;26.00;41.70;;;;;;5033684;28;20518;-71
2022/07/18 03:44:07;;;;;;;2.50;1.80;;;26.00;41.60;;;;;;5028415;28;20440;-71
2022/07/18 03:46:36;;;;;;;1.80;1.60;;;26.00;41.70;;;;;;5033328;28;20468;-71
2022/07/18 03:49:04;;;;;;;2.00;1.80;;;25.90;41.70;;;;;;5038500;28;20474;-72
2022/07/18 03:51:32;;;;;;;1.70;1.50;;;25.90;41.70;;;;;;5033315;28;20510;-73
2022/07/18 03:54:00;;;;;;;1.57;1.40;;;25.90;41.50;;;;;;5043232;28;20541;-71
2022/07/18 03:56:30;;;;;;;1.30;1.20;;;25.90;41.00;;;;;;5043199;28;20488;-72
2022/07/18 03:58:58;;;;;;;1.30;1.20;;;25.90;41.10;;;;;;5028060;28;20456;-71
2022/07/18 04:01:26;;;;;;;1.60;1.23;;;25.90;41.40;;;;;;5035690;28;20471;-72
2022/07/18 04:03:54;;;;;;;1.70;1.53;;;25.90;41.60;;;;;;5032395;28;20437;-72
2022/07/18 04:06:23;;;;;;;1.60;1.50;;;25.90;41.70;;;;;;5030140;28;20606;-72
2022/07/18 04:08:51;;;;;;;1.67;1.57;;;25.90;41.60;;;;;;5034145;28;20502;-71
2022/07/18 04:11:23;;;;;;;1.67;1.40;;;25.90;41.60;;;;;;5033092;28;20460;-71
2022/07/18 04:13:54;;;;;;;1.90;1.50;;;25.90;41.70;;;;;;5029710;28;20460;-71
2022/07/18 04:16:22;;;;;;;2.30;1.40;;;25.90;41.60;;;;;;5032384;28;20471;-72
2022/07/18 04:18:50;;;;;;;2.00;1.27;;;25.90;41.60;;;;;;5038310;28;20456;-71
2022/07/18 04:21:18;;;;;;;2.00;1.67;;;25.90;41.70;;;;;;5032137;28;20491;-72
2022/07/18 04:23:47;;;;;;;1.70;1.60;;;25.90;41.80;;;;;;5033598;28;20432;-72
2022/07/18 04:26:15;;;;;;;4.33;1.83;;;25.80;41.40;;;;;;5033037;28;20507;-72
2022/07/18 04:28:43;;;;;;;2.13;1.93;;;25.80;41.30;;;;;;5031916;28;20464;-72
2022/07/18 04:31:12;;;;;;;1.70;1.23;;;25.80;41.30;;;;;;5032805;28;20456;-71
2022/07/18 04:33:41;;;;;;;1.87;1.40;;;25.80;41.40;;;;;;5024061;28;20479;-71
2022/07/18 04:36:10;;;;;;;1.40;1.30;;;25.80;41.50;;;;;;5028929;28;20460;-72
2022/07/18 04:38:38;;;;;;;3.20;1.23;;;25.80;41.60;;;;;;5031733;28;20456;-71
2022/07/18 04:41:07;;;;;;;1.80;1.27;;;25.80;41.60;;;;;;5032762;28;20863;-72
2022/07/18 04:43:35;;;;;;;1.90;1.40;;;25.80;41.60;;;;;;5032431;28;20864;-72
2022/07/18 04:46:03;;;;;;;2.07;1.33;;;25.80;41.70;;;;;;5029416;28;20475;-72
2022/07/18 04:48:34;;;;;;;1.77;1.50;;;25.80;41.70;;;;;;5032145;28;20547;-72
2022/07/18 04:51:02;;;;;;;2.07;1.40;;;25.80;41.80;;;;;;5031467;28;20468;-72
2022/07/18 04:53:30;;;;;;;1.93;1.70;;;25.80;41.80;;;;;;5032078;28;20432;-72
2022/07/18 04:55:58;;;;;;;1.53;1.40;;;25.80;41.70;;;;;;5032710;28;20518;-72
2022/07/18 04:58:26;;;;;;;2.10;1.90;;;25.80;41.70;;;;;;5028534;28;20869;-71
2022/07/18 05:00:55;;;;;;;2.00;1.47;;;25.80;41.90;;;;;;5036840;28;20521;-72
2022/07/18 05:03:24;;;;;;;2.40;1.50;;;25.80;41.80;;;;;;5034358;28;21807;-73
2022/07/18 05:05:54;;;;;;;1.67;1.10;;;25.80;41.80;;;;;;5028797;28;20901;-72
2022/07/18 05:08:22;;;;;;;1.77;1.67;;;25.80;41.80;;;;;;5032388;28;20452;-72
2022/07/18 05:10:50;;;;;;;2.20;1.50;;;25.80;41.80;;;;;;5039351;28;20472;-72
2022/07/18 05:13:18;;;;;;;1.53;1.43;;;25.80;41.80;;;;;;5027779;28;20444;-72
2022/07/18 05:15:46;;;;;;;1.70;1.50;;;25.70;41.80;;;;;;5031354;28;20878;-72
2022/07/18 05:18:14;;;;;;;2.33;1.67;;;25.70;41.50;;;;;;5040756;28;20516;-72
2022/07/18 05:20:43;;;;;;;1.83;1.63;;;25.70;40.70;;;;;;5028507;28;20460;-71
2022/07/18 05:23:15;;;;;;;2.33;2.13;;;25.70;40.80;;;;;;5032058;28;21057;-72
2022/07/18 05:25:43;;;;;;;1.80;1.43;;;25.70;40.80;;;;;;5032085;28;20818;-72
2022/07/18 05:28:11;;;;;;;2.60;1.67;;;25.70;40.30;;;;;;5025650;28;20494;-71
2022/07/18 05:30:39;;;;;;;1.90;1.60;;;25.70;40.50;;;;;;5031564;28;20460;-72
2022/07/18 05:33:07;;;;;;;2.43;1.63;;;25.70;40.30;;;;;;5031618;28;20444;-71
2022/07/18 05:35:36;;;;;;;2.70;1.40;;;25.70;40.20;;;;;;5029486;28;20475;-71
2022/07/18 05:38:04;;;;;;;2.00;1.53;;;25.70;40.00;;;;;;5037906;28;20535;-72
2022/07/18 05:40:34;;;;;;;2.40;1.90;;;25.70;40.00;;;;;;5031349;28;20808;-71
2022/07/18 05:43:02;;;;;;;4.20;1.40;;;25.70;39.90;;;;;;5031744;28;20432;-71
2022/07/18 05:45:31;;;;;;;1.87;1.50;;;25.60;40.10;;;;;;5023992;28;20456;-72
2022/07/18 05:47:59;;;;;;;2.03;1.50;;;25.60;39.80;;;;;;5031686;28;20436;-71
2022/07/18 05:50:27;;;;;;;2.20;1.70;;;25.60;40.30;;;;;;5026976;28;20467;-71
2022/07/18 05:52:55;;;;;;;1.47;1.20;;;25.60;40.20;;;;;;5029851;28;20780;-71
2022/07/18 05:55:23;;;;;;;2.10;1.33;;;25.60;40.30;;;;;;5030665;28;20976;-71
2022/07/18 05:57:53;;;;;;;2.67;1.73;;;25.60;40.30;;;;;;5032480;28;20560;-70
2022/07/18 06:00:22;;;;;;;2.47;1.70;;;25.60;40.30;;;;;;5027812;28;20529;-72
2022/07/18 06:02:50;;;;;;;1.90;1.70;;;25.60;40.10;;;;;;5029356;28;20451;-71
2022/07/18 06:05:19;;;;;;;1.60;1.50;;;25.60;40.50;;;;;;5028796;28;20459;-71
2022/07/18 06:07:52;;;;;;;2.83;1.70;;;25.60;40.10;;;;;;5031931;28;20481;-70
2022/07/18 06:10:21;;;;;;;2.20;1.43;;;25.60;40.30;;;;;;5031298;28;20835;-71
2022/07/18 06:12:49;;;;;;;1.60;1.47;;;25.60;40.40;;;;;;5016563;28;20432;-72
2022/07/18 06:15:19;;;;;;;2.10;1.50;;;25.60;40.50;;;;;;5028459;28;20490;-71
2022/07/18 06:17:47;;;;;;;1.73;1.60;;;25.60;40.70;;;;;;5036105;28;20466;-72
2022/07/18 06:20:16;;;;;;;1.57;1.47;;;25.60;40.50;;;;;;5035445;28;20465;-72
2022/07/18 06:22:45;;;;;;;2.17;1.50;;;25.60;40.40;;;;;;5032153;28;20929;-72
2022/07/18 06:25:13;;;;;;;1.60;1.40;;;25.60;40.60;;;;;;5036540;28;20519;-71
2022/07/18 06:27:41;;;;;;;2.87;1.70;;;25.60;40.50;;;;;;5030853;28;20813;-72
2022/07/18 06:30:10;;;;;;;2.10;1.60;;;25.60;40.50;;;;;;5019948;28;20470;-72
2022/07/18 06:32:39;;;;;;;1.73;1.53;;;25.60;40.30;;;;;;5030720;28;20432;-71
2022/07/18 06:35:08;;;;;;;2.00;1.70;;;25.60;40.70;;;;;;5029228;28;20460;-72
2022/07/18 06:37:36;;;;;;;1.40;1.30;;;25.60;40.80;;;;;;5033562;28;20474;-72
2022/07/18 06:40:06;;;;;;;1.53;1.43;;;25.60;40.90;;;;;;5035671;28;20801;-71
2022/07/18 06:42:35;;;;;;;3.03;1.60;;;25.60;40.60;;;;;;5031177;28;20478;-72
2022/07/18 06:45:06;;;;;;;2.80;1.60;;;25.60;40.50;;;;;;5029508;28;20444;-71
2022/07/18 06:47:42;;;;;;;3.93;1.77;;;25.60;40.50;;;;;;5031061;28;20451;-71
2022/07/18 06:50:11;;;;;;;2.45;2.03;;;25.60;40.70;;;;;;5027688;28;20949;-71
2022/07/18 06:52:40;;;;;;;2.17;1.60;;;25.60;40.60;;;;;;5031106;28;20284;-72
2022/07/18 06:55:12;;;;;;;1.90;1.63;;;25.60;40.80;;;;;;5030308;28;20829;-71
2022/07/18 06:57:41;;;;;;;3.33;1.40;;;25.60;40.90;;;;;;5028270;28;20432;-71
2022/07/18 07:00:13;;;;;;;1.57;1.20;;;25.60;40.50;;;;;;5025125;28;20456;-71
2022/07/18 07:02:44;;;;;;;2.07;1.60;;;25.60;40.50;;;;;;5030818;28;20439;-71
2022/07/18 07:05:13;;;;;;;2.30;1.33;;;25.60;40.70;;;;;;5030655;28;20875;-71
2022/07/18 07:07:41;;;;;;;1.97;1.57;;;25.60;40.80;;;;;;5030956;28;20439;-71
2022/07/18 07:10:16;;;;;;;4.87;1.97;;;25.60;40.60;;;;;;5029572;28;20467;-71
2022/07/18 07:12:47;;;;;;;1.70;1.60;;;25.60;40.20;;;;;;5028928;28;20503;-71
2022/07/18 07:15:15;;;;;;;2.43;1.70;;;25.60;40.00;;;;;;5025162;28;20448;-71
2022/07/18 07:17:45;;;;;;;3.90;1.60;;;25.60;39.80;;;;;;5031003;28;20486;-71
2022/07/18 07:20:14;;;;;;;1.93;1.40;;;25.60;40.00;;;;;;5027037;28;20993;-71
2022/07/18 07:22:44;;;;;;;1.53;1.43;;;25.60;41.30;;;;;;5037224;28;20470;-71
2022/07/18 07:25:16;;;;;;;1.60;1.40;;;25.60;40.50;;;;;;5030470;28;20423;-71
2022/07/18 07:27:44;;;;;;;1.83;1.63;;;25.60;40.50;;;;;;5024939;28;20440;-71
2022/07/18 07:30:16;;;;;;;1.77;1.30;;;25.60;40.70;;;;;;5029334;28;20996;-70
2022/07/18 07:32:47;;;;;;;3.20;1.83;;;25.60;40.70;;;;;;5030609;28;20925;-71
2022/07/18 07:35:17;;;;;;;1.90;1.17;;;25.60;40.90;;;;;;5027734;28;20475;-71
2022/07/18 07:37:47;;;;;;;1.47;1.20;;;25.60;42.10;;;;;;5034427;28;20930;-71
2022/07/18 07:40:19;;;;;;;2.10;1.50;;;25.60;40.90;;;;;;5038360;28;20832;-72
2022/07/18 07:42:49;;;;;;;2.30;1.30;;;25.60;40.90;;;;;;5026788;28;20432;-71
2022/07/18 07:45:18;;;;;;;1.63;1.33;;;25.60;41.20;;;;;;5025991;28;20525;-71
2022/07/18 07:47:48;;;;;;;1.23;1.13;;;25.60;41.10;;;;;;5034038;28;20940;-71
2022/07/18 07:50:16;;;;;;;1.40;1.30;;;25.60;41.30;;;;;;5035881;28;20981;-71
2022/07/18 07:52:44;;;;;;;1.30;1.20;;;25.60;41.30;;;;;;5033863;28;20898;-71
2022/07/18 07:55:12;;;;;;;2.90;1.60;;;25.60;41.30;;;;;;5035999;28;20424;-71
2022/07/18 07:57:40;;;;;;;1.50;1.20;;;25.60;41.40;;;;;;5033667;28;20439;-73
2022/07/18 08:00:10;;;;;;;2.73;1.30;;;25.60;41.40;;;;;;5028300;28;20475;-72
2022/07/18 08:02:53;;;;;;;1.40;1.30;;;25.60;41.50;;;;;;5033671;28;20430;-71
2022/07/18 08:05:28;;;;;;;1.47;1.17;;;25.70;41.60;;;;;;5030446;28;20451;-71
2022/07/18 08:07:56;;;;;;;2.10;1.33;;;25.60;41.60;;;;;;5040705;28;20432;-71
2022/07/18 08:10:24;;;;;;;1.90;1.67;;;25.70;41.60;;;;;;5032767;28;20460;-71
2022/07/18 08:12:53;;;;;;;1.10;0.90;;;25.60;41.60;;;;;;5033138;28;20440;-71
2022/07/18 08:15:21;;;;;;;1.93;1.47;;;25.60;41.60;;;;;;5033266;28;20934;-71
2022/07/18 08:17:49;;;;;;;1.40;1.10;;;25.60;41.70;;;;;;5025368;28;20474;-71
2022/07/18 08:20:19;;;;;;;1.47;1.37;;;25.60;41.80;;;;;;5029825;28;20460;-72
2022/07/18 08:23:05;;;;;;;1.30;1.20;;;25.60;41.80;;;;;;5033082;28;20463;-71
2022/07/18 08:25:36;;;;;;;1.40;1.30;;;25.60;41.80;;;;;;5033005;28;20494;-71
2022/07/18 08:28:05;;;;;;;1.10;1.00;;;25.60;41.80;;;;;;5029965;28;20436;-72
2022/07/18 08:30:34;;;;;;;1.27;1.07;;;25.60;41.80;;;;;;5032864;28;20464;-71
2022/07/18 08:33:03;;;;;;;2.70;1.40;;;25.60;41.90;;;;;;5032893;28;20440;-71
2022/07/18 08:35:33;;;;;;;1.23;1.13;;;25.60;41.90;;;;;;5028768;28;20518;-71
2022/07/18 08:38:02;;;;;;;1.40;1.30;;;25.60;41.80;;;;;;5033593;28;20421;-71
2022/07/18 08:40:30;;;;;;;1.30;1.07;;;25.60;41.90;;;;;;5032371;28;20472;-71
2022/07/18 08:42:59;;;;;;;1.17;1.00;;;25.60;41.90;;;;;;5033045;28;20451;-71
2022/07/18 08:45:48;;;;;;;1.40;1.20;;;25.60;42.00;;;;;;5028823;28;20463;-72
2022/07/18 08:48:17;;;;;;;1.27;0.90;;;25.60;42.00;;;;;;5033122;28;20480;-71
2022/07/18 08:50:47;;;;;;;1.20;1.10;;;25.60;41.90;;;;;;5028635;28;20452;-71
2022/07/18 08:53:17;;;;;;;1.40;1.30;;;25.60;42.00;;;;;;5032656;28;20494;-71
2022/07/18 08:55:46;;;;;;;1.60;1.50;;;25.60;42.10;;;;;;5032151;28;20460;-71
2022/07/18 08:58:17;;;;;;;1.23;1.13;;;25.60;42.00;;;;;;5029268;28;20503;-71
2022/07/18 09:01:05;;;;;;;1.30;1.20;;;25.60;42.00;;;;;;5026624;28;20459;-71
2022/07/18 09:03:33;;;;;;;1.30;1.20;;;25.60;42.00;;;;;;5040230;28;20439;-71
2022/07/18 09:06:08;;;;;;;1.27;1.17;;;25.60;42.00;;;;;;5028625;28;20833;-71
2022/07/18 09:08:37;;;;;;;1.20;1.10;;;25.60;42.00;;;;;;5032420;28;20525;-72
2022/07/18 09:11:10;;;;;;;1.70;1.23;;;25.60;42.00;;;;;;5014493;28;20460;-71
2022/07/18 09:13:58;;;;;;;1.97;1.40;;;25.60;42.10;;;;;;5025963;28;20494;-71
2022/07/18 09:16:27;;;;;;;2.03;0.93;;;25.60;42.20;;;;;;5031847;28;20463;-71
2022/07/18 09:18:55;;;;;;;2.37;1.33;;;25.60;42.30;;;;;;5030494;28;20463;-72
2022/07/18 09:21:25;;;;;;;1.23;1.10;;;25.60;42.20;;;;;;5031654;28;20472;-71
2022/07/18 09:24:00;;;;;;;1.20;1.10;;;25.60;42.30;;;;;;5025828;28;20450;-71
2022/07/18 09:26:39;;;;;;;1.40;1.20;;;25.60;42.30;;;;;;5028265;28;20551;-70
2022/07/18 09:29:08;;;;;;;1.20;1.10;;;25.60;42.30;;;;;;5025632;28;20459;-71
2022/07/18 09:31:55;;;;;;;1.30;1.17;;;25.60;42.30;;;;;;5031488;28;20509;-71
2022/07/18 09:34:34;;;;;;;1.20;1.10;;;25.60;42.20;;;;;;5033602;28;20449;-71
2022/07/18 09:37:04;;;;;;;0.97;0.90;;;25.60;42.20;;;;;;5031712;28;20497;-70
2022/07/18 09:39:33;;;;;;;1.23;1.10;;;25.60;42.30;;;;;;5031910;28;20451;-71
2022/07/18 09:42:14;;;;;;;1.30;1.20;;;25.60;42.10;;;;;;5031538;28;20537;-71
2022/07/18 09:44:42;;;;;;;1.50;1.00;;;25.60;42.10;;;;;;5034452;28;20447;-71
2022/07/18 09:47:10;;;;;;;1.43;1.33;;;25.60;42.10;;;;;;5043416;28;20611;-73
2022/07/18 09:49:40;;;;;;;1.20;1.10;;;25.60;42.20;;;;;;5040973;28;20468;-71
2022/07/18 09:52:10;;;;;;;1.20;1.10;;;25.60;42.20;;;;;;5039697;28;21049;-71
2022/07/18 09:54:40;;;;;;;1.83;1.73;;;25.60;42.30;;;;;;5032425;28;20930;-71
2022/07/18 09:57:08;;;;;;;3.53;1.40;;;25.60;42.30;;;;;;5030603;28;20896;-71
2022/07/18 09:59:36;;;;;;;1.40;1.10;;;25.60;42.30;;;;;;5024014;28;20796;-71
2022/07/18 10:02:05;;;;;;;1.10;1.00;;;25.60;42.20;;;;;;5032445;28;20455;-71
2022/07/18 10:04:34;;;;;;;1.00;0.90;;;25.60;42.20;;;;;;5028304;28;20444;-71
2022/07/18 10:07:03;;;;;;;5.40;1.20;;;25.60;42.20;;;;;;5037622;28;20472;-71
2022/07/18 10:09:33;;;;;;;1.33;1.10;;;25.70;42.30;;;;;;5049608;28;20808;-71
2022/07/18 10:12:02;;;;;;;1.40;1.20;;;25.70;42.20;;;;;;5037341;28;20472;-71
2022/07/18 10:14:31;;;;;;;2.70;1.63;;;25.70;42.10;;;;;;5029954;28;20895;-71
2022/07/18 10:17:00;;;;;;;1.50;1.40;;;25.70;42.10;;;;;;5035747;28;20881;-71
2022/07/18 10:19:29;;;;;;;1.63;1.47;;;25.70;42.10;;;;;;5011364;28;20465;-71
2022/07/18 10:21:58;;;;;;;1.17;1.07;;;25.70;42.10;;;;;;5030989;28;20464;-71
2022/07/18 10:24:27;;;;;;;1.43;1.10;;;25.70;42.10;;;;;;5031341;28;20474;-72
2022/07/18 10:27:22;;;;;;;2.37;1.10;;;25.60;42.00;;;;;;5033355;28;20479;-71
2022/07/18 10:30:10;;;;;;;3.10;1.57;;;25.60;41.90;;;;;;5006237;28;20802;-72
2022/07/18 10:32:39;;;;;;;0.97;0.97;;;25.60;42.00;;;;;;5030573;28;20521;-72
2022/07/18 10:35:10;;;;;;;1.30;1.20;;;25.60;41.90;;;;;;5027899;28;20475;-71
2022/07/18 10:37:39;;;;;;;1.70;1.30;;;25.70;42.00;;;;;;5030873;28;20530;-71
2022/07/18 10:40:25;;;;;;;2.10;1.27;;;25.70;43.20;;;;;;5031519;28;20443;-72
2022/07/18 10:43:30;;;;;;;1.50;1.40;;;25.60;41.90;;;;;;5023112;28;20820;-71
2022/07/18 10:46:01;;;;;;;1.60;1.50;;;25.70;42.00;;;;;;5039793;28;20479;-71
2022/07/18 10:48:52;;;;;;;1.30;1.20;;;25.70;42.10;;;;;;5030157;28;20448;-73
2022/07/18 10:51:29;;;;;;;1.40;1.30;;;25.70;42.10;;;;;;5027670;28;20456;-72
2022/07/18 10:54:11;;;;;;;1.60;1.50;;;25.60;42.00;;;;;;5025184;28;20436;-73
2022/07/18 10:57:06;;;;;;;1.87;1.37;;;25.70;42.00;;;;;;5029582;28;20499;-71
2022/07/18 10:59:35;;;;;;;1.43;1.33;;;25.70;42.10;;;;;;5021837;28;20517;-73
2022/07/18 11:02:07;;;;;;;1.50;1.40;;;25.70;42.20;;;;;;5029742;28;20480;-71
2022/07/18 11:04:40;;;;;;;2.07;1.20;;;25.70;42.30;;;;;;5029174;28;20456;-72
2022/07/18 11:07:14;;;;;;;1.03;0.93;;;25.70;42.20;;;;;;5035465;28;20510;-72
2022/07/18 11:09:44;;;;;;;1.50;1.40;;;25.70;42.30;;;;;;5031300;28;20856;-71
2022/07/18 11:12:27;;;;;;;2.53;1.37;;;25.70;42.30;;;;;;5032249;28;20852;-73
2022/07/18 11:15:07;;;;;;;1.20;1.10;;;25.70;42.30;;;;;;5030946;28;20443;-71
2022/07/18 11:18:02;;;;;;;2.03;1.10;;;25.70;42.40;;;;;;5033610;28;20545;-71
2022/07/18 11:20:42;;;;;;;1.33;0.97;;;25.70;42.40;;;;;;5032134;28;22286;-71
2022/07/18 11:23:19;;;;;;;1.57;1.20;;;25.70;42.40;;;;;;5035855;28;20863;-71
2022/07/18 11:25:49;;;;;;;1.40;1.30;;;25.70;42.40;;;;;;5042219;28;20509;-73
2022/07/18 11:28:26;;;;;;;1.30;1.20;;;25.70;42.40;;;;;;5039245;28;20442;-72
2022/07/18 11:31:03;;;;;;;1.20;1.00;;;25.70;42.40;;;;;;5034223;28;20456;-71
2022/07/18 11:33:35;;;;;;;1.47;1.37;;;25.70;42.40;;;;;;5033817;28;20863;-72
2022/07/18 11:36:05;;;;;;;1.10;1.00;;;25.70;42.40;;;;;;5030871;28;20514;-72
2022/07/18 11:38:35;;;;;;;1.97;1.30;;;25.70;42.30;;;;;;5033828;28;20480;-72
2022/07/18 11:41:04;;;;;;;1.20;1.10;;;25.70;42.20;;;;;;5033677;28;20539;-72
2022/07/18 11:43:33;;;;;;;1.43;1.30;;;25.70;42.20;;;;;;5030955;28;20501;-71
2022/07/18 11:46:02;;;;;;;0.97;0.90;;;25.70;42.20;;;;;;5027714;28;20980;-70
2022/07/18 11:48:32;;;;;;;1.30;1.20;;;25.70;42.30;;;;;;5034117;28;20527;-71
2022/07/18 11:51:00;;;;;;;0.90;0.90;;;25.80;42.30;;;;;;5030230;28;20452;-71
2022/07/18 11:53:29;;;;;;;1.07;0.97;;;25.80;42.40;;;;;;5033633;28;20441;-71
2022/07/18 11:56:04;;;;;;;1.37;1.27;;;25.80;42.30;;;;;;5042235;28;20510;-71
2022/07/18 11:58:37;;;;;;;1.10;1.00;;;25.80;42.40;;;;;;5028204;28;20968;-71
2022/07/18 12:01:06;;;;;;;1.20;1.10;;;25.80;42.40;;;;;;5033528;28;20471;-72
2022/07/18 12:03:38;;;;;;;1.13;1.03;;;25.80;42.40;;;;;;5033232;28;20436;-72
2022/07/18 12:06:12;;;;;;;1.93;1.00;;;25.80;42.40;;;;;;5032628;28;20458;-72
2022/07/18 12:08:42;;;;;;;1.37;1.00;;;25.80;42.40;;;;;;5033886;28;20470;-71
2022/07/18 12:11:14;;;;;;;1.30;1.00;;;25.80;42.40;;;;;;5033020;28;20475;-71
2022/07/18 12:13:50;;;;;;;1.00;1.00;;;25.80;42.40;;;;;;5031152;28;20444;-72
2022/07/18 12:16:24;;;;;;;1.30;1.10;;;25.80;42.50;;;;;;5033030;28;20521;-71
2022/07/18 12:18:55;;;;;;;3.10;1.00;;;25.80;42.40;;;;;;5028664;28;20479;-71
2022/07/18 12:21:23;;;;;;;1.70;0.97;;;25.90;43.70;;;;;;5032318;28;20488;-71
2022/07/18 12:23:51;;;;;;;2.07;1.03;;;25.90;42.60;;;;;;5032347;28;20444;-71
2022/07/18 12:26:31;;;;;;;2.20;1.20;;;25.90;42.50;;;;;;5032359;28;20521;-71
2022/07/18 12:29:14;;;;;;;1.10;1.00;;;25.90;42.60;;;;;;5030347;28;20467;-70
2022/07/18 12:31:43;;;;;;;1.67;1.10;;;25.90;42.50;;;;;;5037649;28;21001;-72
2022/07/18 12:34:14;;;;;;;1.33;1.20;;;25.90;42.70;;;;;;5031643;28;20801;-71
2022/07/18 12:36:52;;;;;;;1.33;1.10;;;25.90;42.60;;;;;;5032107;28;20476;-71
2022/07/18 12:39:28;;;;;;;1.40;1.27;;;25.90;42.70;;;;;;5033021;28;20468;-71
2022/07/18 12:41:57;;;;;;;1.30;1.20;;;25.90;42.60;;;;;;5029822;28;20488;-71
2022/07/18 12:44:25;;;;;;;2.00;1.40;;;25.90;42.70;;;;;;5031775;28;20464;-71
2022/07/18 12:46:54;;;;;;;1.10;1.00;;;25.90;42.50;;;;;;5031385;28;20891;-72
2022/07/18 12:49:23;;;;;;;0.97;0.87;;;26.00;42.50;;;;;;5029221;28;20500;-71
2022/07/18 12:51:51;;;;;;;1.33;1.10;;;26.00;42.60;;;;;;5024690;28;20476;-71
2022/07/18 12:54:20;;;;;;;1.90;1.63;;;26.00;42.50;;;;;;5032248;28;20436;-72
2022/07/18 12:56:48;;;;;;;1.07;0.97;;;26.00;42.40;;;;;;5029147;28;20456;-70
2022/07/18 12:59:16;;;;;;;1.17;1.10;;;26.00;42.40;;;;;;5031883;28;20500;-72
2022/07/18 13:01:44;;;;;;;1.10;0.90;;;26.00;42.50;;;;;;5029958;28;20460;-70
2022/07/18 13:04:12;;;;;;;1.23;1.13;;;26.00;42.40;;;;;;5029977;28;20958;-72
2022/07/18 13:06:41;;;;;;;1.13;0.93;;;26.00;42.50;;;;;;5030567;28;20526;-71
2022/07/18 13:09:09;;;;;;;1.30;1.20;;;26.00;42.50;;;;;;5032321;28;20460;-72
2022/07/18 13:11:40;;;;;;;1.20;1.10;;;26.00;42.40;;;;;;5031914;28;20456;-70